createdAt,value
2023-04-28T00:01:12.285Z,9.20
2023-04-28T00:03:39.076Z,9.20
2023-04-28T00:06:06.180Z,9.10
2023-04-28T00:08:32.989Z,9.10
2023-04-28T00:11:00.267Z,9.10
2023-04-28T00:13:27.020Z,9.00
2023-04-28T00:15:54.021Z,9.00
2023-04-28T00:18:21.072Z,9.00
2023-04-28T00:20:47.915Z,9.00
2023-04-28T00:23:14.511Z,8.90
2023-04-28T00:25:41.117Z,8.90
2023-04-28T00:28:07.696Z,8.90
2023-04-28T00:30:34.309Z,8.90
2023-04-28T00:33:00.944Z,8.90
2023-04-28T00:35:27.567Z,8.90
2023-04-28T00:37:54.120Z,8.80
2023-04-28T00:40:21.081Z,8.80
2023-04-28T00:42:47.689Z,8.70
2023-04-28T00:45:14.274Z,8.70
2023-04-28T00:47:42.173Z,8.70
2023-04-28T00:50:10.438Z,8.70
2023-04-28T00:52:38.283Z,8.70
2023-04-28T00:55:05.364Z,8.60
2023-04-28T00:57:32.191Z,8.60
2023-04-28T00:59:58.817Z,8.60
2023-04-28T01:02:25.979Z,8.60
2023-04-28T01:04:52.670Z,8.60
2023-04-28T01:07:19.334Z,8.50
2023-04-28T01:09:47.806Z,8.50
2023-04-28T01:12:14.610Z,8.60
2023-04-28T01:14:41.256Z,8.50
2023-04-28T01:17:08.334Z,8.60
2023-04-28T01:19:34.908Z,8.50
2023-04-28T01:22:01.493Z,8.60
2023-04-28T01:24:28.078Z,8.50
2023-04-28T01:26:54.706Z,8.50
2023-04-28T01:29:21.270Z,8.50
2023-04-28T01:31:48.072Z,8.40
2023-04-28T01:34:14.967Z,8.40
2023-04-28T01:36:41.818Z,8.40
2023-04-28T01:39:08.446Z,8.40
2023-04-28T01:41:35.132Z,8.40
2023-04-28T01:44:01.780Z,8.40
2023-04-28T01:46:28.435Z,8.40
2023-04-28T01:48:55.105Z,8.40
2023-04-28T01:51:21.741Z,8.40
2023-04-28T01:53:48.312Z,8.30
2023-04-28T01:56:14.930Z,8.30
2023-04-28T01:58:41.575Z,8.40
2023-04-28T02:01:08.227Z,8.40
2023-04-28T02:03:34.960Z,8.40
2023-04-28T02:06:01.689Z,8.50
2023-04-28T02:08:28.286Z,8.40
2023-04-28T02:10:54.856Z,8.30
2023-04-28T02:13:21.410Z,8.30
2023-04-28T02:15:48.012Z,8.30
2023-04-28T02:18:14.655Z,8.30
2023-04-28T02:20:41.306Z,8.40
2023-04-28T02:23:07.904Z,8.30
2023-04-28T02:25:34.500Z,8.40
2023-04-28T02:28:01.129Z,8.30
2023-04-28T02:30:27.708Z,8.40
2023-04-28T02:32:54.421Z,8.30
2023-04-28T02:35:21.182Z,8.30
2023-04-28T02:37:49.617Z,8.30
2023-04-28T02:40:16.329Z,8.30
2023-04-28T02:42:42.966Z,8.30
2023-04-28T02:45:09.730Z,8.30
2023-04-28T02:47:36.346Z,8.30
2023-04-28T02:50:02.984Z,8.40
2023-04-28T02:52:29.542Z,8.40
2023-04-28T02:54:57.618Z,8.40
2023-04-28T02:57:24.389Z,8.40
2023-04-28T02:59:51.040Z,8.40
2023-04-28T03:02:17.843Z,8.30
2023-04-28T03:04:44.562Z,8.30
2023-04-28T03:07:11.378Z,8.30
2023-04-28T03:09:37.973Z,8.30
2023-04-28T03:12:04.647Z,8.30
2023-04-28T03:14:31.325Z,8.30
2023-04-28T03:16:58.021Z,8.20
2023-04-28T03:19:24.618Z,8.20
2023-04-28T03:21:51.237Z,8.20
2023-04-28T03:24:18.085Z,8.30
2023-04-28T03:26:44.899Z,8.30
2023-04-28T03:29:11.557Z,8.20
2023-04-28T03:31:38.271Z,8.20
2023-04-28T03:34:04.902Z,8.20
2023-04-28T03:36:32.043Z,8.20
2023-04-28T03:38:58.664Z,8.20
2023-04-28T03:41:25.273Z,8.20
2023-04-28T03:43:53.319Z,8.10
2023-04-28T03:46:19.988Z,8.20
2023-04-28T03:48:46.695Z,8.20
2023-04-28T03:51:13.327Z,8.20
2023-04-28T03:53:40.009Z,8.20
2023-04-28T03:56:06.941Z,8.20
2023-04-28T03:58:33.589Z,8.20
2023-04-28T04:01:00.935Z,8.30
2023-04-28T04:03:28.024Z,8.30
2023-04-28T04:05:55.750Z,8.20
2023-04-28T04:08:22.455Z,8.20
2023-04-28T04:10:49.062Z,8.30
2023-04-28T04:13:15.741Z,8.20
2023-04-28T04:15:42.414Z,8.10
2023-04-28T04:18:09.138Z,8.10
2023-04-28T04:20:35.932Z,8.10
2023-04-28T04:23:03.493Z,8.20
2023-04-28T04:25:30.383Z,8.30
2023-04-28T04:27:56.936Z,8.40
2023-04-28T04:30:23.536Z,8.40
2023-04-28T04:32:50.169Z,8.40
2023-04-28T04:35:17.097Z,8.40
2023-04-28T04:37:43.866Z,8.40
2023-04-28T04:40:10.725Z,8.50
2023-04-28T04:42:37.312Z,8.60
2023-04-28T04:45:04.062Z,8.60
2023-04-28T04:47:30.748Z,8.60
2023-04-28T04:49:57.599Z,8.50
2023-04-28T04:52:24.158Z,8.50
2023-04-28T04:54:50.800Z,8.60
2023-04-28T04:57:17.458Z,8.60
2023-04-28T04:59:44.084Z,8.70
2023-04-28T05:02:11.022Z,8.70
2023-04-28T05:04:37.958Z,8.70
2023-04-28T05:07:04.620Z,8.80
2023-04-28T05:09:32.020Z,8.80
2023-04-28T05:11:58.682Z,8.90
2023-04-28T05:14:25.513Z,8.80
2023-04-28T05:16:52.271Z,8.80
2023-04-28T05:19:18.893Z,8.70
2023-04-28T05:21:47.599Z,8.70
2023-04-28T05:24:17.187Z,8.80
2023-04-28T05:26:44.123Z,8.90
2023-04-28T05:29:10.716Z,8.90
2023-04-28T05:31:37.361Z,8.90
2023-04-28T05:34:04.156Z,8.90
2023-04-28T05:36:31.978Z,9.00
2023-04-28T05:38:58.740Z,9.10
2023-04-28T05:41:25.571Z,9.10
2023-04-28T05:43:52.284Z,9.20
2023-04-28T05:46:29.840Z,9.30
2023-04-28T05:48:57.199Z,9.30
2023-04-28T05:51:23.871Z,9.40
2023-04-28T05:53:50.510Z,9.40
2023-04-28T05:56:17.121Z,9.50
2023-04-28T05:58:47.384Z,9.60
2023-04-28T06:01:13.976Z,9.70
2023-04-28T06:03:43.527Z,9.80
2023-04-28T06:06:10.986Z,9.90
2023-04-28T06:08:40.589Z,10.00
2023-04-28T06:11:07.322Z,10.00
2023-04-28T06:13:33.953Z,10.20
2023-04-28T06:16:00.679Z,10.30
2023-04-28T06:18:27.411Z,10.50
2023-04-28T06:20:54.027Z,10.60
2023-04-28T06:23:21.058Z,10.70
2023-04-28T06:25:47.760Z,10.80
2023-04-28T06:28:14.950Z,10.90
2023-04-28T06:30:41.701Z,11.00
2023-04-28T06:33:08.993Z,11.20
2023-04-28T06:35:39.513Z,11.30
2023-04-28T06:38:06.637Z,11.60
2023-04-28T06:40:33.262Z,11.70
2023-04-28T06:42:59.843Z,11.80
2023-04-28T06:45:26.525Z,12.00
2023-04-28T06:47:55.609Z,11.90
2023-04-28T06:50:22.999Z,12.00
2023-04-28T06:52:49.581Z,12.10
2023-04-28T06:55:17.294Z,12.20
2023-04-28T06:57:44.420Z,12.30
2023-04-28T07:00:11.296Z,12.30
2023-04-28T07:02:38.250Z,12.40
2023-04-28T07:05:05.205Z,12.50
2023-04-28T07:09:59.080Z,12.50
2023-04-28T07:12:25.758Z,12.70
2023-04-28T07:14:52.397Z,12.70
2023-04-28T07:17:19.112Z,12.70
2023-04-28T07:19:45.836Z,12.70
2023-04-28T07:22:12.654Z,12.80
2023-04-28T07:24:39.429Z,13.00
2023-04-28T07:27:06.230Z,13.00
2023-04-28T07:29:35.016Z,13.00
2023-04-28T07:32:01.957Z,13.00
2023-04-28T07:34:28.923Z,13.10
2023-04-28T07:36:56.037Z,13.10
2023-04-28T07:39:22.660Z,13.30
2023-04-28T07:41:49.680Z,13.30
2023-04-28T07:44:16.694Z,13.40
2023-04-28T07:46:43.441Z,13.40
2023-04-28T07:49:10.201Z,13.40
2023-04-28T07:51:37.098Z,13.40
2023-04-28T07:54:03.757Z,13.50
2023-04-28T07:56:30.351Z,13.50
2023-04-28T07:58:57.049Z,13.70
2023-04-28T08:01:23.727Z,13.80
2023-04-28T08:03:50.539Z,13.90
2023-04-28T08:06:17.466Z,14.00
2023-04-28T08:08:44.072Z,14.00
2023-04-28T08:11:10.963Z,14.10
2023-04-28T08:13:37.602Z,14.10
2023-04-28T08:16:04.347Z,14.20
2023-04-28T08:18:31.589Z,14.40
2023-04-28T08:20:58.230Z,14.40
2023-04-28T08:23:28.191Z,14.50
2023-04-28T08:25:55.220Z,14.50
2023-04-28T08:28:21.836Z,14.40
2023-04-28T08:30:48.658Z,14.50
2023-04-28T08:33:15.407Z,14.60
2023-04-28T08:35:42.128Z,14.70
2023-04-28T08:38:13.830Z,14.80
2023-04-28T08:40:42.678Z,14.90
2023-04-28T08:43:10.696Z,14.80
2023-04-28T08:45:41.523Z,14.80
2023-04-28T08:48:13.776Z,14.70
2023-04-28T08:50:42.517Z,14.70
2023-04-28T08:53:10.532Z,14.80
2023-04-28T08:55:37.479Z,14.90
2023-04-28T08:58:04.911Z,15.10
2023-04-28T09:00:31.528Z,15.20
2023-04-28T09:02:58.321Z,15.50
2023-04-28T09:05:25.793Z,15.70
2023-04-28T09:07:52.637Z,15.80
2023-04-28T09:10:20.410Z,15.80
2023-04-28T09:12:48.908Z,15.80
2023-04-28T09:15:29.247Z,15.90
2023-04-28T09:17:57.005Z,15.90
2023-04-28T09:20:24.632Z,16.10
2023-04-28T09:22:51.749Z,16.00
2023-04-28T09:25:19.327Z,16.10
2023-04-28T09:27:46.258Z,16.20
2023-04-28T09:30:13.080Z,16.20
2023-04-28T09:32:39.750Z,16.40
2023-04-28T09:35:07.365Z,16.60
2023-04-28T09:37:34.913Z,16.70
2023-04-28T09:40:04.848Z,16.90
2023-04-28T09:42:37.465Z,17.10
2023-04-28T09:45:07.200Z,17.10
2023-04-28T09:47:35.602Z,17.30
2023-04-28T09:50:04.784Z,17.40
2023-04-28T09:52:33.008Z,17.50
2023-04-28T09:55:01.231Z,17.80
2023-04-28T09:57:30.659Z,18.00
2023-04-28T09:59:57.951Z,18.20
2023-04-28T10:02:42.658Z,18.50
2023-04-28T10:05:11.526Z,18.40
2023-04-28T10:07:39.181Z,18.40
2023-04-28T10:10:06.849Z,18.90
2023-04-28T10:12:33.752Z,19.10
2023-04-28T10:15:00.422Z,19.40
2023-04-28T10:17:29.423Z,19.80
2023-04-28T10:19:57.048Z,20.10
2023-04-28T10:22:23.856Z,20.30
2023-04-28T10:25:02.493Z,20.50
2023-04-28T10:27:30.130Z,21.10
2023-04-28T10:30:23.077Z,21.40
2023-04-28T10:33:11.833Z,21.50
2023-04-28T10:35:43.184Z,21.60
2023-04-28T10:38:16.511Z,21.60
2023-04-28T10:40:46.770Z,21.60
2023-04-28T10:43:26.264Z,21.70
2023-04-28T10:45:56.232Z,21.60
2023-04-28T10:48:43.537Z,21.80
2023-04-28T10:51:10.191Z,21.80
2023-04-28T10:53:47.214Z,21.70
2023-04-28T10:56:27.193Z,21.80
2023-04-28T10:58:57.588Z,21.80
2023-04-28T11:01:25.082Z,22.00
2023-04-28T11:04:08.291Z,22.10
2023-04-28T11:07:04.431Z,22.40
2023-04-28T11:09:31.337Z,22.40
2023-04-28T11:12:00.816Z,22.30
2023-04-28T11:14:43.267Z,22.20
2023-04-28T11:17:13.070Z,22.40
2023-04-28T11:19:43.657Z,22.00
2023-04-28T11:22:20.473Z,21.60
2023-04-28T11:24:59.263Z,21.30
2023-04-28T11:27:26.851Z,21.50
2023-04-28T11:29:54.043Z,21.00
2023-04-28T11:32:33.981Z,20.70
2023-04-28T11:35:01.044Z,20.70
2023-04-28T11:37:27.783Z,20.30
2023-04-28T11:39:54.541Z,20.00
2023-04-28T11:42:21.366Z,20.00
2023-04-28T11:44:54.376Z,20.00
2023-04-28T11:47:31.291Z,19.90
2023-04-28T11:49:58.621Z,19.90
2023-04-28T11:52:27.255Z,19.70
2023-04-28T11:54:55.404Z,19.50
2023-04-28T11:57:23.142Z,19.40
2023-04-28T11:59:50.574Z,19.30
2023-04-28T12:02:24.756Z,19.50
2023-04-28T12:04:52.169Z,19.50
2023-04-28T12:07:19.629Z,19.50
2023-04-28T12:10:09.555Z,19.90
2023-04-28T12:12:45.877Z,20.50
2023-04-28T12:15:19.386Z,20.60
2023-04-28T12:17:47.225Z,20.40
2023-04-28T12:20:34.563Z,20.30
2023-04-28T12:23:02.522Z,20.10
2023-04-28T12:25:29.405Z,20.00
2023-04-28T12:28:02.707Z,19.80
2023-04-28T12:30:32.004Z,19.50
2023-04-28T12:32:58.918Z,19.40
2023-04-28T12:35:26.551Z,19.20
2023-04-28T12:37:53.771Z,19.10
2023-04-28T12:40:23.104Z,19.00
2023-04-28T12:42:50.823Z,18.90
2023-04-28T12:45:17.570Z,19.00
2023-04-28T12:47:44.367Z,18.80
2023-04-28T12:50:11.027Z,18.70
2023-04-28T12:52:37.682Z,18.80
2023-04-28T12:55:04.796Z,18.80
2023-04-28T12:57:31.612Z,18.70
2023-04-28T12:59:58.237Z,18.70
2023-04-28T13:02:25.176Z,18.70
2023-04-28T13:04:53.300Z,18.80
2023-04-28T13:07:20.353Z,18.90
2023-04-28T13:09:47.604Z,18.90
2023-04-28T13:12:14.909Z,18.90
2023-04-28T13:14:41.867Z,18.80
2023-04-28T13:17:09.136Z,18.60
2023-04-28T13:19:36.068Z,18.60
2023-04-28T13:22:05.206Z,18.70
2023-04-28T13:24:33.522Z,18.80
2023-04-28T13:27:00.431Z,18.90
2023-04-28T13:29:27.046Z,18.80
2023-04-28T13:31:53.713Z,18.80
2023-04-28T13:34:20.333Z,19.00
2023-04-28T13:36:48.169Z,19.00
2023-04-28T13:39:15.042Z,18.90
2023-04-28T13:41:42.054Z,18.80
2023-04-28T13:44:09.337Z,18.70
2023-04-28T13:46:36.074Z,18.60
2023-04-28T13:49:02.667Z,18.50
2023-04-28T13:51:29.403Z,18.50
2023-04-28T13:53:56.492Z,18.50
2023-04-28T13:56:23.101Z,18.40
2023-04-28T13:58:49.690Z,18.50
2023-04-28T14:01:16.356Z,18.60
2023-04-28T14:03:44.625Z,18.50
2023-04-28T14:06:11.525Z,18.40
2023-04-28T14:08:38.269Z,18.20
2023-04-28T14:11:05.054Z,18.00
2023-04-28T14:13:31.752Z,17.90
2023-04-28T14:15:59.696Z,17.90
2023-04-28T14:18:29.726Z,17.90
2023-04-28T14:20:56.564Z,17.90
2023-04-28T14:23:23.293Z,17.70
2023-04-28T14:25:50.405Z,17.80
2023-04-28T14:28:17.232Z,17.80
2023-04-28T14:30:44.099Z,17.70
2023-04-28T14:33:10.886Z,17.50
2023-04-28T14:35:37.526Z,17.40
2023-04-28T14:38:04.350Z,17.40
2023-04-28T14:40:31.305Z,17.40
2023-04-28T14:42:57.925Z,17.40
2023-04-28T14:45:24.928Z,17.30
2023-04-28T14:47:51.748Z,17.30
2023-04-28T14:50:18.618Z,17.40
2023-04-28T14:52:45.604Z,17.40
2023-04-28T14:55:12.215Z,17.30
2023-04-28T14:57:38.883Z,17.20
2023-04-28T15:00:07.193Z,17.20
2023-04-28T15:02:34.274Z,17.10
2023-04-28T15:05:01.535Z,17.20
2023-04-28T15:07:31.298Z,17.20
2023-04-28T15:09:59.307Z,17.10
2023-04-28T15:12:26.297Z,17.10
2023-04-28T15:14:53.771Z,17.20
2023-04-28T15:17:21.536Z,17.20
2023-04-28T15:19:48.307Z,17.20
2023-04-28T15:22:15.124Z,17.20
2023-04-28T15:24:41.757Z,17.20
2023-04-28T15:27:08.448Z,17.10
2023-04-28T15:29:35.062Z,17.10
2023-04-28T15:32:01.922Z,17.10
2023-04-28T15:34:28.615Z,17.20
2023-04-28T15:36:55.487Z,17.30
2023-04-28T15:39:23.290Z,17.20
2023-04-28T15:41:50.339Z,17.20
2023-04-28T15:44:17.006Z,17.10
2023-04-28T15:46:44.926Z,17.00
2023-04-28T15:49:12.059Z,17.00
2023-04-28T15:51:38.684Z,16.90
2023-04-28T15:54:05.567Z,17.00
2023-04-28T15:56:32.235Z,16.90
2023-04-28T15:58:58.868Z,17.00
2023-04-28T16:01:25.598Z,16.90
2023-04-28T16:03:52.444Z,16.90
2023-04-28T16:06:19.299Z,16.80
2023-04-28T16:08:45.905Z,16.70
2023-04-28T16:11:17.716Z,16.70
2023-04-28T16:13:44.856Z,16.70
2023-04-28T16:16:12.072Z,16.60
2023-04-28T16:18:38.974Z,16.60
2023-04-28T16:21:05.681Z,16.60
2023-04-28T16:23:32.371Z,16.50
2023-04-28T16:25:59.027Z,16.50
2023-04-28T16:28:26.996Z,16.50
2023-04-28T16:30:53.737Z,16.50
2023-04-28T16:33:20.437Z,16.40
2023-04-28T16:35:53.406Z,16.30
2023-04-28T16:38:20.601Z,16.40
2023-04-28T16:40:47.395Z,16.30
2023-04-28T16:43:14.350Z,16.30
2023-04-28T16:45:41.364Z,16.20
2023-04-28T16:48:08.348Z,16.20
2023-04-28T16:50:35.026Z,16.20
2023-04-28T16:53:01.619Z,16.30
2023-04-28T16:55:28.597Z,16.30
2023-04-28T16:57:55.224Z,16.40
2023-04-28T17:00:21.942Z,16.40
2023-04-28T17:02:48.739Z,16.40
2023-04-28T17:05:15.533Z,16.40
2023-04-28T17:07:42.328Z,16.30
2023-04-28T17:10:09.308Z,16.30
2023-04-28T17:12:35.893Z,16.30
2023-04-28T17:15:02.466Z,16.30
2023-04-28T17:17:29.769Z,16.20
2023-04-28T17:19:57.626Z,16.20
2023-04-28T17:22:24.183Z,16.20
2023-04-28T17:24:50.818Z,16.20
2023-04-28T17:27:17.372Z,16.20
2023-04-28T17:29:44.050Z,16.10
2023-04-28T17:32:11.109Z,16.20
2023-04-28T17:34:37.769Z,16.10
2023-04-28T17:37:04.454Z,16.00
2023-04-28T17:39:31.682Z,16.00
2023-04-28T17:41:58.615Z,16.00
2023-04-28T17:44:25.758Z,15.90
2023-04-28T17:46:52.481Z,15.90
2023-04-28T17:49:19.146Z,15.90
2023-04-28T17:51:45.818Z,15.90
2023-04-28T17:54:12.462Z,15.90
2023-04-28T17:56:39.269Z,15.80
2023-04-28T17:59:06.182Z,15.70
2023-04-28T18:01:33.980Z,15.70
2023-04-28T18:04:01.050Z,15.70
2023-04-28T18:06:28.985Z,15.70
2023-04-28T18:08:55.627Z,15.70
2023-04-28T18:11:22.925Z,15.70
2023-04-28T18:13:49.759Z,15.70
2023-04-28T18:16:16.492Z,15.70
2023-04-28T18:18:43.109Z,15.70
2023-04-28T18:21:09.733Z,15.60
2023-04-28T18:23:36.382Z,15.70
2023-04-28T18:26:03.041Z,15.70
2023-04-28T18:28:29.757Z,15.60
2023-04-28T18:30:56.350Z,15.70
2023-04-28T18:33:25.873Z,15.60
2023-04-28T18:36:04.507Z,15.60
2023-04-28T18:38:32.292Z,15.70
2023-04-28T18:40:58.879Z,15.60
2023-04-28T18:43:27.783Z,15.60
2023-04-28T18:45:54.413Z,15.60
2023-04-28T18:48:21.359Z,15.60
2023-04-28T18:50:48.681Z,15.60
2023-04-28T18:53:15.640Z,15.50
2023-04-28T18:55:42.259Z,15.50
2023-04-28T18:58:08.813Z,15.60
2023-04-28T19:00:37.184Z,15.60
2023-04-28T19:03:04.370Z,15.50
2023-04-28T19:05:31.170Z,15.50
2023-04-28T19:07:57.781Z,15.50
2023-04-28T19:10:24.368Z,15.40
2023-04-28T19:12:50.977Z,15.40
2023-04-28T19:15:17.711Z,15.40
2023-04-28T19:17:44.499Z,15.40
2023-04-28T19:20:11.288Z,15.40
2023-04-28T19:22:40.165Z,15.40
2023-04-28T19:25:07.366Z,15.40
2023-04-28T19:27:38.138Z,15.40
2023-04-28T19:30:06.141Z,15.40
2023-04-28T19:32:32.734Z,15.40
2023-04-28T19:34:59.376Z,15.40
2023-04-28T19:37:26.257Z,15.30
2023-04-28T19:39:52.897Z,15.30
2023-04-28T19:42:19.737Z,15.30
2023-04-28T19:44:47.206Z,15.30
2023-04-28T19:47:13.881Z,15.30
2023-04-28T19:49:43.410Z,15.20
2023-04-28T19:52:10.234Z,15.30
2023-04-28T19:54:38.757Z,15.30
2023-04-28T19:57:05.433Z,15.30
2023-04-28T19:59:32.079Z,15.30
2023-04-28T20:01:58.774Z,15.30
2023-04-28T20:04:25.990Z,15.30
2023-04-28T20:06:53.597Z,15.30
2023-04-28T20:09:20.164Z,15.20
2023-04-28T20:11:46.970Z,15.30
2023-04-28T20:14:13.856Z,15.20
2023-04-28T20:16:40.477Z,15.10
2023-04-28T20:19:07.075Z,15.20
2023-04-28T20:21:35.018Z,15.20
2023-04-28T20:24:02.061Z,15.20
2023-04-28T20:26:28.754Z,15.20
2023-04-28T20:28:57.058Z,15.10
2023-04-28T20:31:23.799Z,15.10
2023-04-28T20:33:50.522Z,15.10
2023-04-28T20:36:17.235Z,15.10
2023-04-28T20:38:44.364Z,15.20
2023-04-28T20:41:10.938Z,15.20
2023-04-28T20:43:37.973Z,15.20
2023-04-28T20:46:12.535Z,15.10
2023-04-28T20:48:39.537Z,15.10
2023-04-28T20:51:06.506Z,15.10
2023-04-28T20:53:33.195Z,15.10
2023-04-28T20:55:59.928Z,15.10
2023-04-28T20:58:26.702Z,15.20
2023-04-28T21:00:53.503Z,15.20
2023-04-28T21:03:23.438Z,15.20
2023-04-28T21:05:50.201Z,15.10
2023-04-28T21:08:16.956Z,15.20
2023-04-28T21:10:46.279Z,15.20
2023-04-28T21:13:13.164Z,15.10
2023-04-28T21:15:43.030Z,15.00
2023-04-28T21:18:09.805Z,15.00
2023-04-28T21:20:36.543Z,14.90
2023-04-28T21:23:03.217Z,15.00
2023-04-28T21:25:29.941Z,15.00
2023-04-28T21:27:57.007Z,15.00
2023-04-28T21:30:24.074Z,15.00
2023-04-28T21:32:50.689Z,15.00
2023-04-28T21:35:17.335Z,15.00
2023-04-28T21:37:43.935Z,15.00
2023-04-28T21:40:10.678Z,15.00
2023-04-28T21:42:37.373Z,14.90
2023-04-28T21:45:04.405Z,14.90
2023-04-28T21:47:31.055Z,15.00
2023-04-28T21:49:57.722Z,15.10
2023-04-28T21:52:24.573Z,15.00
2023-04-28T21:54:51.171Z,14.90
2023-04-28T21:57:17.808Z,14.90
2023-04-28T21:59:44.687Z,14.90
2023-04-28T22:02:12.576Z,14.90
2023-04-28T22:04:39.266Z,14.90
2023-04-28T22:07:06.403Z,14.90
2023-04-28T22:09:33.455Z,14.80
2023-04-28T22:12:00.055Z,14.90
2023-04-28T22:14:40.235Z,15.00
2023-04-28T22:17:07.917Z,14.90
2023-04-28T22:19:34.534Z,14.90
2023-04-28T22:22:01.131Z,15.00
2023-04-28T22:24:27.881Z,14.90
2023-04-28T22:26:55.009Z,14.90
2023-04-28T22:29:22.058Z,15.00
2023-04-28T22:31:48.794Z,14.70
2023-04-28T22:34:16.741Z,14.60
2023-04-28T22:36:44.970Z,14.70
2023-04-28T22:39:11.860Z,14.70
2023-04-28T22:41:38.518Z,14.60
2023-04-28T22:44:05.336Z,14.60
2023-04-28T22:46:32.009Z,14.60
2023-04-28T22:48:59.023Z,14.70
2023-04-28T22:51:25.601Z,14.70
2023-04-28T22:53:54.215Z,14.70
2023-04-28T22:56:21.410Z,14.70
2023-04-28T22:58:48.065Z,14.70
2023-04-28T23:01:14.739Z,14.60
2023-04-28T23:03:41.661Z,14.70
2023-04-28T23:06:08.384Z,14.70
2023-04-28T23:08:35.514Z,14.60
2023-04-28T23:11:05.358Z,14.60
2023-04-28T23:13:32.047Z,14.60
2023-04-28T23:16:00.289Z,14.60
2023-04-28T23:18:30.434Z,14.50
2023-04-28T23:20:56.997Z,14.60
2023-04-28T23:23:23.628Z,14.60
2023-04-28T23:25:51.365Z,14.70
2023-04-28T23:28:18.590Z,14.60
2023-04-28T23:30:45.280Z,14.60
2023-04-28T23:33:11.934Z,14.60
2023-04-28T23:35:38.519Z,14.70
2023-04-28T23:38:05.136Z,14.70
2023-04-28T23:40:31.736Z,14.60
2023-04-28T23:42:58.293Z,14.60
2023-04-28T23:45:25.403Z,14.60
2023-04-28T23:47:53.328Z,14.50
2023-04-28T23:50:19.924Z,14.50
2023-04-28T23:52:47.103Z,14.50
2023-04-28T23:55:13.748Z,14.50
2023-04-28T23:57:40.335Z,14.60
